sensor_id;sensor_type;location;lat;lon;timestamp;P1;durP1;ratioP1;P2;durP2;ratioP2
62861;SDS011;48953;53.110;5.592;2023-03-31T00:00:42;28.90;;;4.15;;
62861;SDS011;48953;53.110;5.592;2023-03-31T00:03:08;27.25;;;4.53;;
62861;SDS011;48953;53.110;5.592;2023-03-31T00:05:46;26.73;;;4.43;;
62861;SDS011;48953;53.110;5.592;2023-03-31T00:08:12;26.55;;;3.95;;
62861;SDS011;48953;53.110;5.592;2023-03-31T00:10:42;31.45;;;3.92;;
62861;SDS011;48953;53.110;5.592;2023-03-31T00:13:09;26.10;;;3.53;;
62861;SDS011;48953;53.110;5.592;2023-03-31T00:15:35;28.00;;;4.88;;
62861;SDS011;48953;53.110;5.592;2023-03-31T00:18:01;25.27;;;3.63;;
62861;SDS011;48953;53.110;5.592;2023-03-31T00:20:28;31.27;;;3.95;;
62861;SDS011;48953;53.110;5.592;2023-03-31T00:22:57;27.90;;;5.32;;
62861;SDS011;48953;53.110;5.592;2023-03-31T00:25:23;25.67;;;3.35;;
62861;SDS011;48953;53.110;5.592;2023-03-31T00:27:49;22.92;;;3.47;;
62861;SDS011;48953;53.110;5.592;2023-03-31T00:30:17;23.83;;;3.97;;
62861;SDS011;48953;53.110;5.592;2023-03-31T00:32:43;22.80;;;3.35;;
62861;SDS011;48953;53.110;5.592;2023-03-31T00:35:09;26.38;;;3.53;;
62861;SDS011;48953;53.110;5.592;2023-03-31T00:37:35;18.48;;;3.45;;
62861;SDS011;48953;53.110;5.592;2023-03-31T00:40:02;26.30;;;4.03;;
62861;SDS011;48953;53.110;5.592;2023-03-31T00:42:33;23.10;;;3.10;;
62861;SDS011;48953;53.110;5.592;2023-03-31T00:50:18;18.25;;;3.65;;
62861;SDS011;48953;53.110;5.592;2023-03-31T00:52:46;20.85;;;3.50;;
62861;SDS011;48953;53.110;5.592;2023-03-31T00:55:16;14.63;;;3.35;;
62861;SDS011;48953;53.110;5.592;2023-03-31T00:57:43;22.25;;;2.97;;
62861;SDS011;48953;53.110;5.592;2023-03-31T01:00:12;15.68;;;3.35;;
62861;SDS011;48953;53.110;5.592;2023-03-31T01:02:39;27.52;;;3.58;;
62861;SDS011;48953;53.110;5.592;2023-03-31T01:05:10;27.25;;;4.03;;
62861;SDS011;48953;53.110;5.592;2023-03-31T01:07:37;19.08;;;3.20;;
62861;SDS011;48953;53.110;5.592;2023-03-31T01:10:05;25.53;;;3.23;;
62861;SDS011;48953;53.110;5.592;2023-03-31T01:12:33;24.88;;;3.42;;
62861;SDS011;48953;53.110;5.592;2023-03-31T01:15:02;26.10;;;4.28;;
62861;SDS011;48953;53.110;5.592;2023-03-31T01:17:29;28.42;;;3.55;;
62861;SDS011;48953;53.110;5.592;2023-03-31T01:22:53;25.40;;;3.30;;
62861;SDS011;48953;53.110;5.592;2023-03-31T01:30:54;24.83;;;3.70;;
62861;SDS011;48953;53.110;5.592;2023-03-31T01:33:46;31.35;;;4.40;;
62861;SDS011;48953;53.110;5.592;2023-03-31T01:39:02;18.70;;;3.40;;
62861;SDS011;48953;53.110;5.592;2023-03-31T01:44:20;21.55;;;2.88;;
62861;SDS011;48953;53.110;5.592;2023-03-31T01:46:53;20.65;;;3.67;;
62861;SDS011;48953;53.110;5.592;2023-03-31T01:54:45;28.73;;;3.17;;
62861;SDS011;48953;53.110;5.592;2023-03-31T02:02:30;24.48;;;3.47;;
62861;SDS011;48953;53.110;5.592;2023-03-31T02:05:01;21.38;;;3.55;;
62861;SDS011;48953;53.110;5.592;2023-03-31T02:07:33;22.30;;;3.63;;
62861;SDS011;48953;53.110;5.592;2023-03-31T02:10:13;19.67;;;3.30;;
62861;SDS011;48953;53.110;5.592;2023-03-31T02:12:40;22.70;;;4.00;;
62861;SDS011;48953;53.110;5.592;2023-03-31T02:15:09;21.80;;;3.08;;
62861;SDS011;48953;53.110;5.592;2023-03-31T02:17:36;18.42;;;3.03;;
62861;SDS011;48953;53.110;5.592;2023-03-31T02:20:06;15.40;;;2.97;;
62861;SDS011;48953;53.110;5.592;2023-03-31T02:22:36;17.55;;;3.63;;
62861;SDS011;48953;53.110;5.592;2023-03-31T02:25:03;16.73;;;2.83;;
62861;SDS011;48953;53.110;5.592;2023-03-31T02:27:32;23.92;;;3.17;;
62861;SDS011;48953;53.110;5.592;2023-03-31T02:29:59;19.52;;;3.03;;
62861;SDS011;48953;53.110;5.592;2023-03-31T02:32:34;23.35;;;2.95;;
62861;SDS011;48953;53.110;5.592;2023-03-31T02:35:01;21.33;;;3.25;;
62861;SDS011;48953;53.110;5.592;2023-03-31T02:37:27;23.17;;;4.40;;
62861;SDS011;48953;53.110;5.592;2023-03-31T02:39:55;22.77;;;3.67;;
62861;SDS011;48953;53.110;5.592;2023-03-31T02:42:21;20.55;;;2.90;;
62861;SDS011;48953;53.110;5.592;2023-03-31T02:44:47;16.50;;;2.40;;
62861;SDS011;48953;53.110;5.592;2023-03-31T02:47:14;10.98;;;2.63;;
62861;SDS011;48953;53.110;5.592;2023-03-31T02:49:44;17.85;;;3.42;;
62861;SDS011;48953;53.110;5.592;2023-03-31T02:52:15;17.25;;;2.25;;
62861;SDS011;48953;53.110;5.592;2023-03-31T03:00:04;13.52;;;2.55;;
62861;SDS011;48953;53.110;5.592;2023-03-31T03:07:57;19.75;;;2.97;;
62861;SDS011;48953;53.110;5.592;2023-03-31T03:10:50;13.45;;;2.45;;
62861;SDS011;48953;53.110;5.592;2023-03-31T03:15:43;11.45;;;2.55;;
62861;SDS011;48953;53.110;5.592;2023-03-31T03:20:38;14.40;;;2.75;;
62861;SDS011;48953;53.110;5.592;2023-03-31T03:23:05;13.07;;;2.65;;
62861;SDS011;48953;53.110;5.592;2023-03-31T03:25:31;13.02;;;3.25;;
62861;SDS011;48953;53.110;5.592;2023-03-31T03:27:58;11.27;;;2.78;;
62861;SDS011;48953;53.110;5.592;2023-03-31T03:30:24;7.95;;;2.80;;
62861;SDS011;48953;53.110;5.592;2023-03-31T03:32:50;10.77;;;3.47;;
62861;SDS011;48953;53.110;5.592;2023-03-31T03:35:16;13.70;;;3.85;;
62861;SDS011;48953;53.110;5.592;2023-03-31T03:37:43;13.45;;;4.38;;
62861;SDS011;48953;53.110;5.592;2023-03-31T03:40:09;14.25;;;4.55;;
62861;SDS011;48953;53.110;5.592;2023-03-31T03:42:36;16.88;;;5.57;;
62861;SDS011;48953;53.110;5.592;2023-03-31T03:45:02;15.52;;;5.38;;
62861;SDS011;48953;53.110;5.592;2023-03-31T03:47:28;14.65;;;5.75;;
62861;SDS011;48953;53.110;5.592;2023-03-31T03:49:54;18.20;;;5.22;;
62861;SDS011;48953;53.110;5.592;2023-03-31T03:52:20;14.63;;;4.30;;
62861;SDS011;48953;53.110;5.592;2023-03-31T03:54:46;12.65;;;4.95;;
62861;SDS011;48953;53.110;5.592;2023-03-31T03:57:13;13.80;;;4.68;;
62861;SDS011;48953;53.110;5.592;2023-03-31T03:59:39;15.75;;;4.60;;
62861;SDS011;48953;53.110;5.592;2023-03-31T04:02:05;17.20;;;4.50;;
62861;SDS011;48953;53.110;5.592;2023-03-31T04:04:31;12.65;;;4.15;;
62861;SDS011;48953;53.110;5.592;2023-03-31T04:06:57;16.65;;;3.72;;
62861;SDS011;48953;53.110;5.592;2023-03-31T04:09:23;12.85;;;4.25;;
62861;SDS011;48953;53.110;5.592;2023-03-31T04:11:49;10.50;;;3.33;;
62861;SDS011;48953;53.110;5.592;2023-03-31T04:14:15;11.85;;;3.42;;
62861;SDS011;48953;53.110;5.592;2023-03-31T04:16:41;11.93;;;3.35;;
62861;SDS011;48953;53.110;5.592;2023-03-31T04:19:10;9.50;;;3.38;;
62861;SDS011;48953;53.110;5.592;2023-03-31T04:21:38;11.82;;;4.30;;
62861;SDS011;48953;53.110;5.592;2023-03-31T04:24:12;13.60;;;3.60;;
62861;SDS011;48953;53.110;5.592;2023-03-31T04:26:45;14.32;;;3.72;;
62861;SDS011;48953;53.110;5.592;2023-03-31T04:29:14;14.50;;;4.25;;
62861;SDS011;48953;53.110;5.592;2023-03-31T04:31:40;12.35;;;3.80;;
62861;SDS011;48953;53.110;5.592;2023-03-31T04:34:07;15.57;;;3.88;;
62861;SDS011;48953;53.110;5.592;2023-03-31T04:36:38;13.18;;;3.65;;
62861;SDS011;48953;53.110;5.592;2023-03-31T04:39:07;10.13;;;3.17;;
62861;SDS011;48953;53.110;5.592;2023-03-31T04:41:34;11.70;;;4.30;;
62861;SDS011;48953;53.110;5.592;2023-03-31T04:44:01;10.75;;;3.90;;
62861;SDS011;48953;53.110;5.592;2023-03-31T04:46:27;13.18;;;3.75;;
62861;SDS011;48953;53.110;5.592;2023-03-31T04:48:53;10.25;;;4.20;;
62861;SDS011;48953;53.110;5.592;2023-03-31T04:51:19;8.25;;;4.15;;
62861;SDS011;48953;53.110;5.592;2023-03-31T04:53:45;12.65;;;5.25;;
62861;SDS011;48953;53.110;5.592;2023-03-31T04:56:11;11.45;;;3.88;;
62861;SDS011;48953;53.110;5.592;2023-03-31T04:58:37;13.23;;;4.47;;
62861;SDS011;48953;53.110;5.592;2023-03-31T05:01:04;12.50;;;4.72;;
62861;SDS011;48953;53.110;5.592;2023-03-31T05:03:33;15.50;;;4.60;;
62861;SDS011;48953;53.110;5.592;2023-03-31T05:05:59;11.30;;;4.70;;
62861;SDS011;48953;53.110;5.592;2023-03-31T05:08:25;13.40;;;5.25;;
62861;SDS011;48953;53.110;5.592;2023-03-31T05:10:52;10.20;;;5.00;;
62861;SDS011;48953;53.110;5.592;2023-03-31T05:13:18;13.18;;;4.95;;
62861;SDS011;48953;53.110;5.592;2023-03-31T05:15:44;10.32;;;4.35;;
62861;SDS011;48953;53.110;5.592;2023-03-31T05:18:12;10.27;;;4.43;;
62861;SDS011;48953;53.110;5.592;2023-03-31T05:20:41;12.25;;;4.68;;
62861;SDS011;48953;53.110;5.592;2023-03-31T05:23:07;14.57;;;5.40;;
62861;SDS011;48953;53.110;5.592;2023-03-31T05:25:33;12.68;;;4.82;;
62861;SDS011;48953;53.110;5.592;2023-03-31T05:27:59;12.35;;;4.90;;
62861;SDS011;48953;53.110;5.592;2023-03-31T05:30:25;10.27;;;3.60;;
62861;SDS011;48953;53.110;5.592;2023-03-31T05:32:52;11.13;;;4.25;;
62861;SDS011;48953;53.110;5.592;2023-03-31T05:35:18;9.95;;;4.43;;
62861;SDS011;48953;53.110;5.592;2023-03-31T05:37:44;13.20;;;4.00;;
62861;SDS011;48953;53.110;5.592;2023-03-31T05:40:10;11.13;;;3.95;;
62861;SDS011;48953;53.110;5.592;2023-03-31T05:42:37;7.68;;;3.90;;
62861;SDS011;48953;53.110;5.592;2023-03-31T05:45:03;8.75;;;3.92;;
62861;SDS011;48953;53.110;5.592;2023-03-31T05:47:29;9.20;;;4.30;;
62861;SDS011;48953;53.110;5.592;2023-03-31T05:49:56;8.43;;;3.72;;
62861;SDS011;48953;53.110;5.592;2023-03-31T05:52:22;9.30;;;3.90;;
62861;SDS011;48953;53.110;5.592;2023-03-31T05:54:48;10.65;;;4.50;;
62861;SDS011;48953;53.110;5.592;2023-03-31T05:57:14;11.05;;;4.70;;
62861;SDS011;48953;53.110;5.592;2023-03-31T05:59:41;14.20;;;5.60;;
62861;SDS011;48953;53.110;5.592;2023-03-31T06:02:15;15.60;;;5.57;;
62861;SDS011;48953;53.110;5.592;2023-03-31T06:04:41;13.77;;;5.05;;
62861;SDS011;48953;53.110;5.592;2023-03-31T06:07:08;11.60;;;4.90;;
62861;SDS011;48953;53.110;5.592;2023-03-31T06:09:41;16.10;;;6.05;;
62861;SDS011;48953;53.110;5.592;2023-03-31T06:12:07;11.27;;;5.88;;
62861;SDS011;48953;53.110;5.592;2023-03-31T06:14:33;12.52;;;5.78;;
62861;SDS011;48953;53.110;5.592;2023-03-31T06:16:59;14.88;;;5.93;;
62861;SDS011;48953;53.110;5.592;2023-03-31T06:19:25;10.40;;;5.82;;
62861;SDS011;48953;53.110;5.592;2023-03-31T06:21:51;13.50;;;7.28;;
62861;SDS011;48953;53.110;5.592;2023-03-31T06:24:17;10.65;;;5.10;;
62861;SDS011;48953;53.110;5.592;2023-03-31T06:26:43;11.90;;;5.28;;
62861;SDS011;48953;53.110;5.592;2023-03-31T06:29:09;10.45;;;4.80;;
62861;SDS011;48953;53.110;5.592;2023-03-31T06:31:35;9.60;;;4.80;;
62861;SDS011;48953;53.110;5.592;2023-03-31T06:34:01;10.43;;;4.70;;
62861;SDS011;48953;53.110;5.592;2023-03-31T06:36:27;9.82;;;3.70;;
62861;SDS011;48953;53.110;5.592;2023-03-31T06:38:53;7.82;;;3.45;;
62861;SDS011;48953;53.110;5.592;2023-03-31T06:41:19;9.55;;;2.90;;
62861;SDS011;48953;53.110;5.592;2023-03-31T06:43:47;5.60;;;2.58;;
62861;SDS011;48953;53.110;5.592;2023-03-31T06:48:42;5.63;;;2.88;;
62861;SDS011;48953;53.110;5.592;2023-03-31T06:51:08;8.43;;;2.78;;
62861;SDS011;48953;53.110;5.592;2023-03-31T06:53:34;8.02;;;2.70;;
62861;SDS011;48953;53.110;5.592;2023-03-31T06:56:00;4.15;;;2.60;;
62861;SDS011;48953;53.110;5.592;2023-03-31T06:58:27;5.10;;;2.22;;
62861;SDS011;48953;53.110;5.592;2023-03-31T07:00:53;8.43;;;2.00;;
62861;SDS011;48953;53.110;5.592;2023-03-31T07:03:19;6.13;;;1.92;;
62861;SDS011;48953;53.110;5.592;2023-03-31T07:05:49;7.97;;;3.30;;
62861;SDS011;48953;53.110;5.592;2023-03-31T07:08:15;4.15;;;2.55;;
62861;SDS011;48953;53.110;5.592;2023-03-31T07:10:44;4.45;;;2.42;;
62861;SDS011;48953;53.110;5.592;2023-03-31T07:13:28;5.65;;;2.63;;
62861;SDS011;48953;53.110;5.592;2023-03-31T07:15:54;4.32;;;1.88;;
62861;SDS011;48953;53.110;5.592;2023-03-31T07:18:21;4.93;;;1.80;;
62861;SDS011;48953;53.110;5.592;2023-03-31T07:20:50;3.85;;;1.67;;
62861;SDS011;48953;53.110;5.592;2023-03-31T07:23:16;6.18;;;1.75;;
62861;SDS011;48953;53.110;5.592;2023-03-31T07:25:43;3.25;;;1.60;;
62861;SDS011;48953;53.110;5.592;2023-03-31T07:28:09;7.80;;;2.78;;
62861;SDS011;48953;53.110;5.592;2023-03-31T07:30:36;7.05;;;2.10;;
62861;SDS011;48953;53.110;5.592;2023-03-31T07:33:02;4.95;;;2.40;;
62861;SDS011;48953;53.110;5.592;2023-03-31T07:35:28;4.45;;;2.13;;
62861;SDS011;48953;53.110;5.592;2023-03-31T07:37:54;4.03;;;1.75;;
62861;SDS011;48953;53.110;5.592;2023-03-31T07:40:22;6.93;;;2.13;;
62861;SDS011;48953;53.110;5.592;2023-03-31T07:42:48;6.15;;;1.88;;
62861;SDS011;48953;53.110;5.592;2023-03-31T07:45:21;3.55;;;2.05;;
62861;SDS011;48953;53.110;5.592;2023-03-31T07:47:47;3.83;;;1.98;;
62861;SDS011;48953;53.110;5.592;2023-03-31T07:50:14;4.78;;;2.10;;
62861;SDS011;48953;53.110;5.592;2023-03-31T07:52:41;3.45;;;1.85;;
62861;SDS011;48953;53.110;5.592;2023-03-31T07:55:08;6.20;;;2.10;;
62861;SDS011;48953;53.110;5.592;2023-03-31T07:57:41;5.78;;;2.17;;
62861;SDS011;48953;53.110;5.592;2023-03-31T08:00:08;6.88;;;2.03;;
62861;SDS011;48953;53.110;5.592;2023-03-31T08:02:36;7.45;;;2.97;;
62861;SDS011;48953;53.110;5.592;2023-03-31T08:05:03;7.72;;;2.50;;
62861;SDS011;48953;53.110;5.592;2023-03-31T08:07:32;7.72;;;2.83;;
62861;SDS011;48953;53.110;5.592;2023-03-31T08:09:58;4.43;;;2.50;;
62861;SDS011;48953;53.110;5.592;2023-03-31T08:12:24;4.22;;;2.20;;
62861;SDS011;48953;53.110;5.592;2023-03-31T08:14:50;4.50;;;2.67;;
62861;SDS011;48953;53.110;5.592;2023-03-31T08:17:16;4.40;;;2.33;;
62861;SDS011;48953;53.110;5.592;2023-03-31T08:19:43;8.13;;;2.47;;
62861;SDS011;48953;53.110;5.592;2023-03-31T08:22:09;7.68;;;2.60;;
62861;SDS011;48953;53.110;5.592;2023-03-31T08:24:35;6.85;;;2.80;;
62861;SDS011;48953;53.110;5.592;2023-03-31T08:27:01;6.53;;;2.60;;
62861;SDS011;48953;53.110;5.592;2023-03-31T08:29:27;6.38;;;2.63;;
62861;SDS011;48953;53.110;5.592;2023-03-31T08:31:53;5.65;;;2.40;;
62861;SDS011;48953;53.110;5.592;2023-03-31T08:34:19;6.85;;;3.05;;
62861;SDS011;48953;53.110;5.592;2023-03-31T08:36:45;5.10;;;2.25;;
62861;SDS011;48953;53.110;5.592;2023-03-31T08:39:12;8.85;;;3.08;;
62861;SDS011;48953;53.110;5.592;2023-03-31T08:44:15;5.63;;;2.67;;
62861;SDS011;48953;53.110;5.592;2023-03-31T08:46:43;7.70;;;2.90;;
62861;SDS011;48953;53.110;5.592;2023-03-31T08:49:12;7.72;;;2.60;;
62861;SDS011;48953;53.110;5.592;2023-03-31T08:51:40;5.57;;;2.58;;
62861;SDS011;48953;53.110;5.592;2023-03-31T08:54:11;3.92;;;2.30;;
62861;SDS011;48953;53.110;5.592;2023-03-31T08:56:39;6.80;;;2.53;;
62861;SDS011;48953;53.110;5.592;2023-03-31T08:59:16;3.75;;;1.92;;
62861;SDS011;48953;53.110;5.592;2023-03-31T09:07:12;3.28;;;1.85;;
62861;SDS011;48953;53.110;5.592;2023-03-31T09:12:18;6.38;;;1.80;;
62861;SDS011;48953;53.110;5.592;2023-03-31T09:14:47;3.88;;;2.03;;
62861;SDS011;48953;53.110;5.592;2023-03-31T09:19:47;5.60;;;2.60;;
62861;SDS011;48953;53.110;5.592;2023-03-31T09:22:17;3.40;;;1.60;;
62861;SDS011;48953;53.110;5.592;2023-03-31T09:24:46;3.88;;;1.52;;
62861;SDS011;48953;53.110;5.592;2023-03-31T09:27:14;4.45;;;1.50;;
62861;SDS011;48953;53.110;5.592;2023-03-31T09:29:41;5.45;;;1.98;;
62861;SDS011;48953;53.110;5.592;2023-03-31T09:32:13;4.45;;;2.20;;
62861;SDS011;48953;53.110;5.592;2023-03-31T09:34:39;4.45;;;2.10;;
62861;SDS011;48953;53.110;5.592;2023-03-31T09:37:05;6.38;;;1.92;;
62861;SDS011;48953;53.110;5.592;2023-03-31T09:39:31;3.28;;;2.00;;
62861;SDS011;48953;53.110;5.592;2023-03-31T09:41:57;4.97;;;1.83;;
62861;SDS011;48953;53.110;5.592;2023-03-31T09:46:53;6.18;;;3.03;;
62861;SDS011;48953;53.110;5.592;2023-03-31T09:49:20;6.22;;;2.00;;
62861;SDS011;48953;53.110;5.592;2023-03-31T09:51:47;4.63;;;2.63;;
62861;SDS011;48953;53.110;5.592;2023-03-31T09:54:21;4.43;;;2.20;;
62861;SDS011;48953;53.110;5.592;2023-03-31T09:56:49;5.97;;;2.25;;
62861;SDS011;48953;53.110;5.592;2023-03-31T09:59:36;6.63;;;2.85;;
62861;SDS011;48953;53.110;5.592;2023-03-31T10:02:05;5.45;;;2.47;;
62861;SDS011;48953;53.110;5.592;2023-03-31T10:04:44;6.05;;;3.17;;
62861;SDS011;48953;53.110;5.592;2023-03-31T10:07:11;7.88;;;3.30;;
62861;SDS011;48953;53.110;5.592;2023-03-31T10:09:37;7.65;;;2.90;;
62861;SDS011;48953;53.110;5.592;2023-03-31T10:12:07;9.20;;;3.60;;
62861;SDS011;48953;53.110;5.592;2023-03-31T10:14:39;9.98;;;3.50;;
62861;SDS011;48953;53.110;5.592;2023-03-31T10:17:05;7.97;;;3.20;;
62861;SDS011;48953;53.110;5.592;2023-03-31T10:19:35;7.78;;;2.97;;
62861;SDS011;48953;53.110;5.592;2023-03-31T10:22:05;8.68;;;3.20;;
62861;SDS011;48953;53.110;5.592;2023-03-31T10:24:47;7.13;;;2.50;;
62861;SDS011;48953;53.110;5.592;2023-03-31T10:27:25;7.88;;;3.00;;
62861;SDS011;48953;53.110;5.592;2023-03-31T10:29:56;7.63;;;2.75;;
62861;SDS011;48953;53.110;5.592;2023-03-31T10:32:26;7.90;;;3.05;;
62861;SDS011;48953;53.110;5.592;2023-03-31T10:34:54;7.22;;;3.08;;
62861;SDS011;48953;53.110;5.592;2023-03-31T10:37:29;6.75;;;2.70;;
62861;SDS011;48953;53.110;5.592;2023-03-31T10:40:12;7.43;;;2.53;;
62861;SDS011;48953;53.110;5.592;2023-03-31T10:42:39;8.63;;;2.90;;
62861;SDS011;48953;53.110;5.592;2023-03-31T10:45:09;8.35;;;3.10;;
62861;SDS011;48953;53.110;5.592;2023-03-31T10:47:37;9.85;;;3.78;;
62861;SDS011;48953;53.110;5.592;2023-03-31T10:50:08;5.63;;;2.50;;
62861;SDS011;48953;53.110;5.592;2023-03-31T10:52:42;8.07;;;2.88;;
62861;SDS011;48953;53.110;5.592;2023-03-31T10:55:11;8.88;;;3.30;;
62861;SDS011;48953;53.110;5.592;2023-03-31T11:00:23;9.45;;;2.83;;
62861;SDS011;48953;53.110;5.592;2023-03-31T11:03:03;10.68;;;2.88;;
62861;SDS011;48953;53.110;5.592;2023-03-31T11:05:35;7.70;;;2.20;;
62861;SDS011;48953;53.110;5.592;2023-03-31T11:18:31;10.15;;;2.20;;
62861;SDS011;48953;53.110;5.592;2023-03-31T11:26:00;5.90;;;2.92;;
62861;SDS011;48953;53.110;5.592;2023-03-31T11:31:13;9.35;;;2.92;;
62861;SDS011;48953;53.110;5.592;2023-03-31T11:33:47;8.13;;;2.22;;
62861;SDS011;48953;53.110;5.592;2023-03-31T11:38:53;7.93;;;2.25;;
62861;SDS011;48953;53.110;5.592;2023-03-31T11:41:22;4.05;;;2.47;;
62861;SDS011;48953;53.110;5.592;2023-03-31T11:43:55;7.30;;;2.45;;
62861;SDS011;48953;53.110;5.592;2023-03-31T11:49:18;8.35;;;2.60;;
62861;SDS011;48953;53.110;5.592;2023-03-31T11:54:57;11.95;;;4.10;;
62861;SDS011;48953;53.110;5.592;2023-03-31T11:57:32;8.27;;;2.92;;
62861;SDS011;48953;53.110;5.592;2023-03-31T12:00:45;10.50;;;2.88;;
62861;SDS011;48953;53.110;5.592;2023-03-31T12:05:38;11.10;;;3.33;;
62861;SDS011;48953;53.110;5.592;2023-03-31T12:13:13;10.35;;;2.95;;
62861;SDS011;48953;53.110;5.592;2023-03-31T12:15:43;8.40;;;2.40;;
62861;SDS011;48953;53.110;5.592;2023-03-31T12:18:17;10.73;;;2.60;;
62861;SDS011;48953;53.110;5.592;2023-03-31T12:20:46;8.73;;;2.08;;
62861;SDS011;48953;53.110;5.592;2023-03-31T12:23:19;9.18;;;2.65;;
62861;SDS011;48953;53.110;5.592;2023-03-31T12:28:13;15.82;;;3.60;;
62861;SDS011;48953;53.110;5.592;2023-03-31T12:30:40;12.27;;;3.20;;
62861;SDS011;48953;53.110;5.592;2023-03-31T12:41:19;13.18;;;4.05;;
62861;SDS011;48953;53.110;5.592;2023-03-31T12:46:39;7.60;;;2.53;;
62861;SDS011;48953;53.110;5.592;2023-03-31T12:54:18;10.43;;;2.42;;
62861;SDS011;48953;53.110;5.592;2023-03-31T12:59:31;7.68;;;2.65;;
62861;SDS011;48953;53.110;5.592;2023-03-31T13:02:16;7.95;;;2.25;;
62861;SDS011;48953;53.110;5.592;2023-03-31T13:04:43;6.72;;;1.90;;
62861;SDS011;48953;53.110;5.592;2023-03-31T13:07:51;5.28;;;1.48;;
62861;SDS011;48953;53.110;5.592;2023-03-31T13:10:22;6.67;;;1.57;;
62861;SDS011;48953;53.110;5.592;2023-03-31T13:12:56;7.13;;;1.90;;
62861;SDS011;48953;53.110;5.592;2023-03-31T13:15:23;6.07;;;2.00;;
62861;SDS011;48953;53.110;5.592;2023-03-31T13:20:34;5.40;;;1.70;;
62861;SDS011;48953;53.110;5.592;2023-03-31T13:28:07;7.78;;;1.67;;
62861;SDS011;48953;53.110;5.592;2023-03-31T13:33:03;5.13;;;1.40;;
62861;SDS011;48953;53.110;5.592;2023-03-31T13:35:32;5.78;;;1.50;;
62861;SDS011;48953;53.110;5.592;2023-03-31T13:48:13;5.95;;;1.65;;
62861;SDS011;48953;53.110;5.592;2023-03-31T13:50:59;3.50;;;1.25;;
62861;SDS011;48953;53.110;5.592;2023-03-31T14:06:25;7.95;;;1.50;;
62861;SDS011;48953;53.110;5.592;2023-03-31T14:08:59;8.15;;;1.70;;
62861;SDS011;48953;53.110;5.592;2023-03-31T14:11:27;4.07;;;1.60;;
62861;SDS011;48953;53.110;5.592;2023-03-31T14:16:31;5.93;;;1.55;;
62861;SDS011;48953;53.110;5.592;2023-03-31T14:21:50;5.60;;;1.20;;
62861;SDS011;48953;53.110;5.592;2023-03-31T14:27:26;4.35;;;1.00;;
62861;SDS011;48953;53.110;5.592;2023-03-31T14:29:58;3.05;;;0.70;;
62861;SDS011;48953;53.110;5.592;2023-03-31T14:32:36;4.95;;;1.00;;
62861;SDS011;48953;53.110;5.592;2023-03-31T14:37:31;3.13;;;0.93;;
62861;SDS011;48953;53.110;5.592;2023-03-31T14:39:59;3.67;;;0.95;;
62861;SDS011;48953;53.110;5.592;2023-03-31T14:42:31;3.60;;;0.70;;
62861;SDS011;48953;53.110;5.592;2023-03-31T14:47:33;3.72;;;1.00;;
62861;SDS011;48953;53.110;5.592;2023-03-31T14:50:00;3.53;;;0.90;;
62861;SDS011;48953;53.110;5.592;2023-03-31T14:52:30;5.47;;;1.20;;
62861;SDS011;48953;53.110;5.592;2023-03-31T14:54:58;4.03;;;1.67;;
62861;SDS011;48953;53.110;5.592;2023-03-31T14:57:26;4.68;;;1.15;;
62861;SDS011;48953;53.110;5.592;2023-03-31T14:59:53;3.53;;;0.95;;
62861;SDS011;48953;53.110;5.592;2023-03-31T15:02:36;5.25;;;1.30;;
62861;SDS011;48953;53.110;5.592;2023-03-31T15:05:07;3.75;;;1.05;;
62861;SDS011;48953;53.110;5.592;2023-03-31T15:07:34;3.65;;;1.30;;
62861;SDS011;48953;53.110;5.592;2023-03-31T15:10:00;2.67;;;1.10;;
62861;SDS011;48953;53.110;5.592;2023-03-31T15:12:27;3.10;;;0.90;;
62861;SDS011;48953;53.110;5.592;2023-03-31T15:14:54;4.68;;;1.20;;
62861;SDS011;48953;53.110;5.592;2023-03-31T15:17:23;5.32;;;1.20;;
62861;SDS011;48953;53.110;5.592;2023-03-31T15:19:53;2.80;;;1.00;;
62861;SDS011;48953;53.110;5.592;2023-03-31T15:22:20;3.33;;;0.80;;
62861;SDS011;48953;53.110;5.592;2023-03-31T15:24:47;5.07;;;1.00;;
62861;SDS011;48953;53.110;5.592;2023-03-31T15:30:06;4.85;;;1.05;;
62861;SDS011;48953;53.110;5.592;2023-03-31T15:32:36;3.33;;;0.98;;
62861;SDS011;48953;53.110;5.592;2023-03-31T15:35:02;2.60;;;0.90;;
62861;SDS011;48953;53.110;5.592;2023-03-31T15:37:30;3.55;;;1.05;;
62861;SDS011;48953;53.110;5.592;2023-03-31T15:40:00;3.70;;;1.65;;
62861;SDS011;48953;53.110;5.592;2023-03-31T15:42:31;5.35;;;1.33;;
62861;SDS011;48953;53.110;5.592;2023-03-31T15:47:48;4.43;;;1.13;;
62861;SDS011;48953;53.110;5.592;2023-03-31T15:50:15;6.03;;;1.25;;
62861;SDS011;48953;53.110;5.592;2023-03-31T15:52:48;5.18;;;1.63;;
62861;SDS011;48953;53.110;5.592;2023-03-31T15:55:24;3.70;;;1.40;;
62861;SDS011;48953;53.110;5.592;2023-03-31T15:57:50;8.88;;;2.83;;
62861;SDS011;48953;53.110;5.592;2023-03-31T16:02:59;3.55;;;1.30;;
62861;SDS011;48953;53.110;5.592;2023-03-31T16:05:38;4.90;;;1.48;;
62861;SDS011;48953;53.110;5.592;2023-03-31T16:08:12;4.00;;;1.15;;
62861;SDS011;48953;53.110;5.592;2023-03-31T16:10:40;5.55;;;1.23;;
62861;SDS011;48953;53.110;5.592;2023-03-31T16:15:39;4.00;;;1.23;;
62861;SDS011;48953;53.110;5.592;2023-03-31T16:20:37;2.80;;;1.00;;
62861;SDS011;48953;53.110;5.592;2023-03-31T16:23:25;4.38;;;1.30;;
62861;SDS011;48953;53.110;5.592;2023-03-31T16:25:52;4.53;;;1.50;;
62861;SDS011;48953;53.110;5.592;2023-03-31T16:28:22;3.97;;;1.15;;
62861;SDS011;48953;53.110;5.592;2023-03-31T16:30:49;3.25;;;1.48;;
62861;SDS011;48953;53.110;5.592;2023-03-31T16:33:16;6.38;;;1.60;;
62861;SDS011;48953;53.110;5.592;2023-03-31T16:35:46;4.50;;;1.20;;
62861;SDS011;48953;53.110;5.592;2023-03-31T16:38:17;3.42;;;1.10;;
62861;SDS011;48953;53.110;5.592;2023-03-31T16:40:44;3.10;;;1.30;;
62861;SDS011;48953;53.110;5.592;2023-03-31T16:43:12;3.42;;;1.30;;
62861;SDS011;48953;53.110;5.592;2023-03-31T16:45:39;5.30;;;1.20;;
62861;SDS011;48953;53.110;5.592;2023-03-31T16:48:06;3.67;;;1.13;;
62861;SDS011;48953;53.110;5.592;2023-03-31T16:50:32;3.78;;;1.33;;
62861;SDS011;48953;53.110;5.592;2023-03-31T16:52:59;3.22;;;0.98;;
62861;SDS011;48953;53.110;5.592;2023-03-31T17:00:22;3.55;;;1.00;;
62861;SDS011;48953;53.110;5.592;2023-03-31T17:02:48;1.30;;;0.80;;
62861;SDS011;48953;53.110;5.592;2023-03-31T17:05:14;3.08;;;1.35;;
62861;SDS011;48953;53.110;5.592;2023-03-31T17:07:41;2.50;;;1.23;;
62861;SDS011;48953;53.110;5.592;2023-03-31T17:10:08;2.83;;;0.90;;
62861;SDS011;48953;53.110;5.592;2023-03-31T17:12:34;2.80;;;0.95;;
62861;SDS011;48953;53.110;5.592;2023-03-31T17:15:00;3.65;;;1.00;;
62861;SDS011;48953;53.110;5.592;2023-03-31T17:17:27;1.40;;;1.00;;
62861;SDS011;48953;53.110;5.592;2023-03-31T17:19:53;2.33;;;0.80;;
62861;SDS011;48953;53.110;5.592;2023-03-31T17:22:19;3.80;;;0.90;;
62861;SDS011;48953;53.110;5.592;2023-03-31T17:24:46;3.28;;;0.90;;
62861;SDS011;48953;53.110;5.592;2023-03-31T17:27:13;2.08;;;1.67;;
62861;SDS011;48953;53.110;5.592;2023-03-31T17:29:39;2.45;;;0.95;;
62861;SDS011;48953;53.110;5.592;2023-03-31T17:32:05;2.97;;;1.25;;
62861;SDS011;48953;53.110;5.592;2023-03-31T17:34:31;4.15;;;1.10;;
62861;SDS011;48953;53.110;5.592;2023-03-31T17:36:57;2.92;;;1.23;;
62861;SDS011;48953;53.110;5.592;2023-03-31T17:39:31;2.58;;;0.93;;
62861;SDS011;48953;53.110;5.592;2023-03-31T17:42:10;2.35;;;1.23;;
62861;SDS011;48953;53.110;5.592;2023-03-31T17:44:40;2.30;;;0.98;;
62861;SDS011;48953;53.110;5.592;2023-03-31T17:47:06;2.75;;;0.95;;
62861;SDS011;48953;53.110;5.592;2023-03-31T17:49:32;1.48;;;0.70;;
62861;SDS011;48953;53.110;5.592;2023-03-31T17:51:59;2.92;;;0.85;;
62861;SDS011;48953;53.110;5.592;2023-03-31T17:54:25;2.35;;;1.02;;
62861;SDS011;48953;53.110;5.592;2023-03-31T17:56:51;2.85;;;1.10;;
62861;SDS011;48953;53.110;5.592;2023-03-31T17:59:17;2.55;;;1.00;;